createdAt,value
2018-03-19T00:02:10.973Z,101817
2018-03-19T00:04:39.996Z,101823
2018-03-19T00:07:08.216Z,101813
2018-03-19T00:09:38.057Z,101811
2018-03-19T00:12:06.297Z,101813
2018-03-19T00:14:34.521Z,101811
2018-03-19T00:17:03.509Z,101809
2018-03-19T00:19:31.736Z,101810
2018-03-19T00:22:00.066Z,101812
2018-03-19T00:24:28.330Z,101805
2018-03-19T00:26:56.549Z,101799
2018-03-19T00:29:24.802Z,101796
2018-03-19T00:31:53.923Z,101799
2018-03-19T00:34:22.195Z,101791
2018-03-19T00:36:50.438Z,101788
2018-03-19T00:39:18.674Z,101793
2018-03-19T00:41:46.872Z,101795
2018-03-19T00:44:15.081Z,101793
2018-03-19T00:46:43.264Z,101783
2018-03-19T00:49:12.289Z,101788
2018-03-19T00:51:41.256Z,101778
2018-03-19T00:54:09.535Z,101781
2018-03-19T00:56:37.712Z,101783
2018-03-19T00:59:05.860Z,101777
2018-03-19T01:01:34.062Z,101773
2018-03-19T01:04:02.236Z,101783
2018-03-19T01:06:30.403Z,101780
2018-03-19T01:08:58.688Z,101775
2018-03-19T01:11:26.884Z,101776
2018-03-19T01:13:55.081Z,101776
2018-03-19T01:16:23.550Z,101767
2018-03-19T01:18:51.745Z,101769
2018-03-19T01:21:19.933Z,101763
2018-03-19T01:23:48.283Z,101760
2018-03-19T01:26:16.523Z,101764
2018-03-19T01:28:44.707Z,101765
2018-03-19T01:31:13.665Z,101769
2018-03-19T01:33:42.021Z,101765
2018-03-19T01:36:10.240Z,101771
2018-03-19T01:38:38.494Z,101769
2018-03-19T01:41:06.696Z,101761
2018-03-19T01:43:35.634Z,101763
2018-03-19T01:46:03.834Z,101765
2018-03-19T01:48:32.068Z,101769
2018-03-19T01:51:00.320Z,101757
2018-03-19T01:53:28.526Z,101765
2018-03-19T01:55:56.735Z,101760
2018-03-19T01:58:24.996Z,101767
2018-03-19T02:00:53.181Z,101755
2018-03-19T02:03:21.409Z,101755
2018-03-19T02:05:49.604Z,101755
2018-03-19T02:08:17.873Z,101750
2018-03-19T02:10:46.058Z,101754
2018-03-19T02:13:14.255Z,101750
2018-03-19T02:15:42.441Z,101756
2018-03-19T02:18:10.633Z,101749
2018-03-19T02:20:38.801Z,101747
2018-03-19T02:23:07.776Z,101745
2018-03-19T02:25:35.988Z,101741
2018-03-19T02:28:04.337Z,101744
2018-03-19T02:30:33.271Z,101747
2018-03-19T02:33:01.496Z,101738
2018-03-19T02:35:30.428Z,101747
2018-03-19T02:37:58.612Z,101744
2018-03-19T02:40:26.793Z,101734
2018-03-19T02:42:55.011Z,101737
2018-03-19T02:45:24.896Z,101737
2018-03-19T02:47:53.117Z,101742
2018-03-19T02:50:21.414Z,101734
2018-03-19T02:52:49.626Z,101742
2018-03-19T02:55:17.823Z,101737
2018-03-19T02:57:46.158Z,101739
2018-03-19T03:00:14.385Z,101732
2018-03-19T03:02:42.645Z,101728
2018-03-19T03:05:11.615Z,101734
2018-03-19T03:07:40.242Z,101734
2018-03-19T03:10:08.416Z,101738
2018-03-19T03:12:36.622Z,101735
2018-03-19T03:15:04.845Z,101734
2018-03-19T03:17:33.799Z,101742
2018-03-19T03:20:02.072Z,101739
2018-03-19T03:22:30.240Z,101745
2018-03-19T03:24:58.442Z,101742
2018-03-19T03:27:26.630Z,101742
2018-03-19T03:29:55.634Z,101745
2018-03-19T03:32:24.080Z,101747
2018-03-19T03:34:52.321Z,101739
2018-03-19T03:37:20.487Z,101742
2018-03-19T03:39:48.680Z,101735
2018-03-19T03:42:16.863Z,101741
2018-03-19T03:44:45.073Z,101740
2018-03-19T03:47:14.640Z,101744
2018-03-19T03:49:42.838Z,101740
2018-03-19T03:52:11.004Z,101741
2018-03-19T03:54:39.234Z,101745
2018-03-19T03:57:07.410Z,101743
2018-03-19T03:59:36.804Z,101742
2018-03-19T04:02:05.741Z,101734
2018-03-19T04:04:33.949Z,101743
2018-03-19T04:07:02.254Z,101743
2018-03-19T04:09:30.478Z,101752
2018-03-19T04:11:59.494Z,101746
2018-03-19T04:14:27.700Z,101750
2018-03-19T04:16:55.966Z,101746
2018-03-19T04:19:24.204Z,101761
2018-03-19T04:21:53.187Z,101754
2018-03-19T04:24:21.441Z,101749
2018-03-19T04:26:49.594Z,101753
2018-03-19T04:29:17.847Z,101759
2018-03-19T04:31:46.114Z,101760
2018-03-19T04:34:14.390Z,101752
2018-03-19T04:36:42.582Z,101758
2018-03-19T04:39:12.579Z,101759
2018-03-19T04:41:40.748Z,101754
2018-03-19T04:44:08.919Z,101750
2018-03-19T04:46:37.080Z,101752
2018-03-19T04:49:05.273Z,101760
2018-03-19T04:51:33.459Z,101747
2018-03-19T04:54:01.662Z,101752
2018-03-19T04:56:29.894Z,101753
2018-03-19T04:58:58.176Z,101746
2018-03-19T05:01:26.428Z,101751
2018-03-19T05:03:54.655Z,101747
2018-03-19T05:06:22.822Z,101755
2018-03-19T05:08:51.007Z,101751
2018-03-19T05:11:20.527Z,101752
2018-03-19T05:13:49.501Z,101756
2018-03-19T05:16:17.700Z,101750
2018-03-19T05:18:45.916Z,101753
2018-03-19T05:21:14.109Z,101759
2018-03-19T05:23:42.330Z,101753
2018-03-19T05:26:11.414Z,101759
2018-03-19T05:28:40.376Z,101761
2018-03-19T05:31:08.524Z,101762
2018-03-19T05:33:36.704Z,101761
2018-03-19T05:36:04.997Z,101763
2018-03-19T05:38:33.213Z,101764
2018-03-19T05:41:02.147Z,101768
2018-03-19T05:43:30.426Z,101763
2018-03-19T05:45:58.600Z,101763
2018-03-19T05:48:26.822Z,101767
2018-03-19T05:50:55.815Z,101765
2018-03-19T05:53:24.797Z,101772
2018-03-19T05:55:53.807Z,101765
2018-03-19T05:58:22.071Z,101772
2018-03-19T06:00:50.270Z,101771
2018-03-19T06:03:18.506Z,101770
2018-03-19T06:05:47.514Z,101776
2018-03-19T06:08:16.519Z,101785
2018-03-19T06:10:44.733Z,101786
2018-03-19T06:13:12.966Z,101783
2018-03-19T06:15:41.149Z,101784
2018-03-19T06:18:09.385Z,101786
2018-03-19T06:20:37.598Z,101779
2018-03-19T06:23:05.798Z,101787
2018-03-19T06:25:34.082Z,101795
2018-03-19T06:28:02.311Z,101787
2018-03-19T06:30:30.512Z,101786
2018-03-19T06:32:58.730Z,101788
2018-03-19T06:35:26.907Z,101786
2018-03-19T06:37:55.118Z,101786
2018-03-19T06:40:23.370Z,101782
2018-03-19T06:42:52.441Z,101786
2018-03-19T06:45:20.693Z,101791
2018-03-19T06:47:48.884Z,101785
2018-03-19T06:50:17.109Z,101789
2018-03-19T06:52:45.290Z,101785
2018-03-19T06:55:13.493Z,101793
2018-03-19T06:57:41.659Z,101803
2018-03-19T07:00:09.970Z,101798
2018-03-19T07:02:38.178Z,101797
2018-03-19T07:05:06.343Z,101797
2018-03-19T07:07:34.538Z,101797
2018-03-19T07:10:03.523Z,101800
2018-03-19T07:12:31.729Z,101798
2018-03-19T07:14:59.908Z,101804
2018-03-19T07:17:29.114Z,101803
2018-03-19T07:19:57.320Z,101797
2018-03-19T07:22:26.435Z,101806
2018-03-19T07:24:54.853Z,101805
2018-03-19T07:27:23.129Z,101800
2018-03-19T07:29:51.335Z,101803
2018-03-19T07:32:20.363Z,101802
2018-03-19T07:34:48.664Z,101798
2018-03-19T07:37:17.032Z,101802
2018-03-19T07:39:45.376Z,101810
2018-03-19T07:42:13.628Z,101801
2018-03-19T07:44:42.569Z,101798
2018-03-19T07:47:10.900Z,101803
2018-03-19T07:49:39.249Z,101795
2018-03-19T07:52:07.628Z,101794
2018-03-19T07:54:35.828Z,101797
2018-03-19T07:57:04.792Z,101797
2018-03-19T07:59:32.969Z,101801
2018-03-19T08:02:01.173Z,101802
2018-03-19T08:04:29.351Z,101800
2018-03-19T08:06:57.570Z,101801
2018-03-19T08:09:25.899Z,101806
2018-03-19T08:11:54.111Z,101798
2018-03-19T08:14:22.421Z,101805
2018-03-19T08:16:50.615Z,101803
2018-03-19T08:19:19.593Z,101803
2018-03-19T08:21:48.558Z,101814
2018-03-19T08:24:16.751Z,101806
2018-03-19T08:26:45.075Z,101808
2018-03-19T08:29:13.259Z,101802
2018-03-19T08:31:41.527Z,101805
2018-03-19T08:34:09.706Z,101794
2018-03-19T08:36:37.883Z,101792
2018-03-19T08:39:07.039Z,101797
2018-03-19T08:41:35.359Z,101792
2018-03-19T08:44:03.639Z,101789
2018-03-19T08:46:31.862Z,101795
2018-03-19T08:49:00.104Z,101790
2018-03-19T08:51:28.412Z,101787
2018-03-19T08:53:57.463Z,101780
2018-03-19T08:56:25.772Z,101780
2018-03-19T08:58:54.858Z,101786
2018-03-19T09:01:23.042Z,101784
2018-03-19T09:03:51.371Z,101782
2018-03-19T09:06:19.615Z,101774
2018-03-19T09:08:47.972Z,101778
2018-03-19T09:11:17.267Z,101780
2018-03-19T09:13:46.409Z,101775
2018-03-19T09:16:14.722Z,101778
2018-03-19T09:18:42.950Z,101769
2018-03-19T09:21:12.032Z,101772
2018-03-19T09:23:41.140Z,101767
2018-03-19T09:26:10.180Z,101772
2018-03-19T09:28:38.945Z,101771
2018-03-19T09:31:07.175Z,101773
2018-03-19T09:33:36.207Z,101762
2018-03-19T09:36:04.452Z,101762
2018-03-19T09:38:32.706Z,101764
2018-03-19T09:41:01.111Z,101767
2018-03-19T09:43:29.328Z,101759
2018-03-19T09:45:57.568Z,101763
2018-03-19T09:48:25.831Z,101762
2018-03-19T09:50:54.051Z,101769
2018-03-19T09:53:22.299Z,101760
2018-03-19T09:55:50.531Z,101760
2018-03-19T09:58:18.776Z,101754
2018-03-19T10:00:47.047Z,101746
2018-03-19T10:03:15.301Z,101761
2018-03-19T10:05:43.491Z,101757
2018-03-19T10:08:11.765Z,101750
2018-03-19T10:10:40.043Z,101757
2018-03-19T10:13:08.837Z,101742
2018-03-19T10:15:37.214Z,101738
2018-03-19T10:18:05.448Z,101744
2018-03-19T10:20:33.728Z,101734
2018-03-19T10:23:02.034Z,101739
2018-03-19T10:25:30.427Z,101734
2018-03-19T10:27:58.678Z,101730
2018-03-19T10:30:26.924Z,101733
2018-03-19T10:32:56.313Z,101720
2018-03-19T10:35:24.677Z,101711
2018-03-19T10:37:56.517Z,101721
2018-03-19T10:40:25.803Z,101719
2018-03-19T10:43:05.047Z,101714
2018-03-19T10:48:57.417Z,101719
2018-03-19T10:54:09.711Z,101710
2018-03-19T10:56:40.922Z,101712
2018-03-19T10:59:09.716Z,101711
2018-03-19T11:05:32.419Z,101711
2018-03-19T11:08:46.272Z,101692
2018-03-19T11:11:14.715Z,101698
2018-03-19T11:13:42.927Z,101691
2018-03-19T11:16:12.020Z,101682
2018-03-19T11:18:40.352Z,101680
2018-03-19T11:21:10.680Z,101675
2018-03-19T11:23:40.853Z,101681
2018-03-19T11:26:11.533Z,101681
2018-03-19T11:28:41.511Z,101676
2018-03-19T11:31:10.116Z,101664
2018-03-19T11:33:38.411Z,101660
2018-03-19T11:36:06.946Z,101669
2018-03-19T11:38:39.659Z,101660
2018-03-19T11:41:09.935Z,101666
2018-03-19T11:43:38.279Z,101657
2018-03-19T11:46:07.178Z,101660
2018-03-19T11:48:36.569Z,101652
2018-03-19T11:55:51.405Z,101642
2018-03-19T12:01:37.261Z,101648
2018-03-19T12:04:05.463Z,101649
2018-03-19T12:06:33.701Z,101644
2018-03-19T12:09:01.939Z,101636
2018-03-19T12:11:30.963Z,101632
2018-03-19T12:13:59.380Z,101632
2018-03-19T12:16:27.560Z,101619
2018-03-19T12:18:55.800Z,101622
2018-03-19T12:21:25.920Z,101619
2018-03-19T12:23:54.144Z,101622
2018-03-19T12:26:27.092Z,101626
2018-03-19T12:28:55.429Z,101619
2018-03-19T12:31:23.638Z,101615
2018-03-19T12:33:51.990Z,101604
2018-03-19T12:36:20.274Z,101615
2018-03-19T12:38:50.434Z,101601
2018-03-19T12:41:18.779Z,101601
2018-03-19T12:43:47.092Z,101590
2018-03-19T12:46:38.210Z,101582
2018-03-19T12:49:07.293Z,101588
2018-03-19T12:57:46.512Z,101577
2018-03-19T13:00:18.260Z,101571
2018-03-19T13:02:58.974Z,101561
2018-03-19T13:05:29.299Z,101566
2018-03-19T13:08:08.842Z,101560
2018-03-19T13:11:02.584Z,101565
2018-03-19T13:13:30.945Z,101561
2018-03-19T13:16:01.661Z,101557
2018-03-19T13:18:29.929Z,101564
2018-03-19T13:20:58.958Z,101555
2018-03-19T13:23:27.999Z,101554
2018-03-19T13:25:56.266Z,101545
2018-03-19T13:28:24.560Z,101545
2018-03-19T13:30:54.209Z,101546
2018-03-19T13:33:22.536Z,101539
2018-03-19T13:35:50.846Z,101538
2018-03-19T13:38:19.103Z,101537
2018-03-19T13:40:48.206Z,101535
2018-03-19T13:43:17.349Z,101535
2018-03-19T13:45:45.667Z,101534
2018-03-19T13:48:14.740Z,101533
2018-03-19T13:50:43.753Z,101530
2018-03-19T13:53:12.765Z,101532
2018-03-19T13:55:41.111Z,101524
2018-03-19T13:58:09.315Z,101511
2018-03-19T14:00:37.618Z,101510
2018-03-19T14:03:05.921Z,101510
2018-03-19T14:05:34.259Z,101506
2018-03-19T14:08:02.578Z,101507
2018-03-19T14:10:30.878Z,101506
2018-03-19T14:12:59.240Z,101505
2018-03-19T14:15:27.614Z,101498
2018-03-19T14:17:56.784Z,101494
2018-03-19T14:20:25.830Z,101487
2018-03-19T14:40:31.325Z,101474
2018-03-19T14:43:04.452Z,101467
2018-03-19T14:45:32.795Z,101471
2018-03-19T14:48:01.105Z,101460
2018-03-19T14:50:32.236Z,101464
2018-03-19T14:53:00.370Z,101460
2018-03-19T14:55:32.168Z,101455
2018-03-19T14:58:01.194Z,101454
2018-03-19T15:00:29.516Z,101455
2018-03-19T15:02:57.678Z,101440
2018-03-19T15:05:25.991Z,101442
2018-03-19T15:07:54.198Z,101433
2018-03-19T15:10:23.419Z,101449
2018-03-19T15:12:51.658Z,101431
2018-03-19T15:15:20.713Z,101440
2018-03-19T15:17:50.043Z,101437
2018-03-19T15:20:18.289Z,101428
2018-03-19T15:22:46.492Z,101423
2018-03-19T15:25:15.563Z,101419
2018-03-19T15:27:43.712Z,101417
2018-03-19T15:30:11.987Z,101413
2018-03-19T15:32:40.209Z,101410
2018-03-19T15:35:10.582Z,101411
2018-03-19T15:37:38.800Z,101404
2018-03-19T15:40:07.802Z,101405
2018-03-19T15:42:36.019Z,101406
2018-03-19T15:45:04.194Z,101397
2018-03-19T15:47:32.378Z,101398
2018-03-19T15:50:00.721Z,101397
2018-03-19T15:52:28.925Z,101393
2018-03-19T15:54:57.223Z,101384
2018-03-19T15:57:25.557Z,101388
2018-03-19T15:59:54.017Z,101375
2018-03-19T16:02:22.307Z,101386
2018-03-19T16:04:50.470Z,101387
2018-03-19T16:07:18.622Z,101379
2018-03-19T16:09:46.780Z,101390
2018-03-19T16:12:15.030Z,101384
2018-03-19T16:14:43.282Z,101376
2018-03-19T16:17:11.476Z,101377
2018-03-19T16:19:39.738Z,101383
2018-03-19T16:22:07.980Z,101370
2018-03-19T16:24:36.371Z,101380
2018-03-19T16:27:04.551Z,101388
2018-03-19T16:29:32.731Z,101385
2018-03-19T16:32:01.650Z,101382
2018-03-19T16:34:29.919Z,101382
2018-03-19T16:36:58.074Z,101384
2018-03-19T16:39:26.297Z,101373
2018-03-19T16:45:21.040Z,101373
2018-03-19T16:48:13.604Z,101383
2018-03-19T16:50:58.566Z,101380
2018-03-19T16:53:57.158Z,101372
2018-03-19T16:56:33.742Z,101383
2018-03-19T16:59:34.340Z,101386
2018-03-19T17:02:13.917Z,101386
2018-03-19T17:04:52.222Z,101385
2018-03-19T17:07:23.889Z,101385
2018-03-19T17:10:19.494Z,101377
2018-03-19T17:13:22.370Z,101387
2018-03-19T17:18:50.569Z,101392
2018-03-19T17:24:10.291Z,101386
2018-03-19T17:26:40.933Z,101385
2018-03-19T17:29:09.277Z,101378
2018-03-19T17:32:20.952Z,101381
2018-03-19T17:41:03.190Z,101390
2018-03-19T17:46:37.204Z,101395
2018-03-19T17:49:05.497Z,101390
2018-03-19T17:51:35.458Z,101390
2018-03-19T17:54:03.750Z,101384
2018-03-19T17:56:32.696Z,101392
2018-03-19T17:59:00.919Z,101398
2018-03-19T18:01:29.861Z,101397
2018-03-19T18:03:58.108Z,101394
2018-03-19T18:06:26.308Z,101401
2018-03-19T18:08:55.286Z,101400
2018-03-19T18:11:23.506Z,101409
2018-03-19T18:13:51.696Z,101420
2018-03-19T18:16:19.909Z,101424
2018-03-19T18:18:48.071Z,101417
2018-03-19T18:21:16.289Z,101416
2018-03-19T18:23:44.429Z,101429
2018-03-19T18:26:12.634Z,101422
2018-03-19T18:28:40.831Z,101418
2018-03-19T18:31:09.014Z,101415
2018-03-19T18:33:37.196Z,101419
2018-03-19T18:36:05.445Z,101416
2018-03-19T18:38:33.582Z,101419
2018-03-19T18:41:01.794Z,101407
2018-03-19T18:43:30.015Z,101403
2018-03-19T18:45:58.194Z,101406
2018-03-19T18:48:26.397Z,101401
2018-03-19T18:50:54.596Z,101410
2018-03-19T18:53:22.779Z,101411
2018-03-19T18:55:51.892Z,101399
2018-03-19T18:58:20.163Z,101397
2018-03-19T19:00:48.404Z,101405
2018-03-19T19:03:17.362Z,101403
2018-03-19T19:05:45.549Z,101397
2018-03-19T19:08:13.887Z,101406
2018-03-19T19:10:42.139Z,101395
2018-03-19T19:13:10.327Z,101397
2018-03-19T19:15:38.481Z,101397
2018-03-19T19:18:06.697Z,101395
2018-03-19T19:20:34.883Z,101394
2018-03-19T19:23:03.097Z,101393
2018-03-19T19:25:31.325Z,101386
2018-03-19T19:27:59.520Z,101382
2018-03-19T19:30:27.727Z,101385
2018-03-19T19:32:55.906Z,101379
2018-03-19T19:35:24.140Z,101377
2018-03-19T19:37:52.326Z,101370
2018-03-19T19:40:20.563Z,101375
2018-03-19T19:42:48.812Z,101378
2018-03-19T19:45:17.058Z,101375
2018-03-19T19:47:46.131Z,101366
2018-03-19T19:50:14.311Z,101369
2018-03-19T19:52:42.514Z,101360
2018-03-19T19:55:10.687Z,101352
2018-03-19T19:57:38.881Z,101370
2018-03-19T20:00:07.040Z,101364
2018-03-19T20:02:35.324Z,101364
2018-03-19T20:05:04.058Z,101369
2018-03-19T20:07:32.273Z,101364
2018-03-19T20:10:00.643Z,101356
2018-03-19T20:12:28.852Z,101361
2018-03-19T20:14:57.003Z,101358
2018-03-19T20:17:25.187Z,101361
2018-03-19T20:19:53.378Z,101361
2018-03-19T20:22:21.738Z,101349
2018-03-19T20:24:50.685Z,101349
2018-03-19T20:27:19.687Z,101352
2018-03-19T20:29:47.899Z,101348
2018-03-19T20:32:16.095Z,101355
2018-03-19T20:34:44.437Z,101348
2018-03-19T20:37:12.656Z,101339
2018-03-19T20:39:40.866Z,101342
2018-03-19T20:42:09.826Z,101337
2018-03-19T20:44:38.156Z,101328
2018-03-19T20:47:06.377Z,101321
2018-03-19T20:49:35.463Z,101315
2018-03-19T20:52:05.133Z,101324
2018-03-19T20:54:33.499Z,101318
2018-03-19T20:57:01.834Z,101316
2018-03-19T20:59:30.072Z,101306
2018-03-19T21:01:58.329Z,101302
2018-03-19T21:04:26.874Z,101302
2018-03-19T21:06:55.095Z,101304
2018-03-19T21:09:23.337Z,101294
2018-03-19T21:11:52.380Z,101296
2018-03-19T21:14:20.704Z,101294
2018-03-19T21:16:49.657Z,101291
2018-03-19T21:19:17.961Z,101284
2018-03-19T21:21:46.440Z,101271
2018-03-19T21:24:15.508Z,101287
2018-03-19T21:26:43.713Z,101280
2018-03-19T21:29:12.717Z,101273
2018-03-19T21:31:41.718Z,101265
2018-03-19T21:34:09.916Z,101273
2018-03-19T21:36:38.265Z,101266
2018-03-19T21:39:07.205Z,101254
2018-03-19T21:41:36.195Z,101252
2018-03-19T21:44:04.359Z,101258
2018-03-19T21:46:32.619Z,101249
2018-03-19T21:49:01.068Z,101252
2018-03-19T21:51:30.007Z,101245
2018-03-19T21:53:58.909Z,101247
2018-03-19T21:56:27.072Z,101247
2018-03-19T21:58:55.247Z,101246
2018-03-19T22:01:23.518Z,101239
2018-03-19T22:03:52.527Z,101242
2018-03-19T22:06:20.735Z,101233
2018-03-19T22:08:48.906Z,101238
2018-03-19T22:11:17.111Z,101236
2018-03-19T22:13:45.266Z,101226
2018-03-19T22:16:13.431Z,101225
2018-03-19T22:18:41.598Z,101224
2018-03-19T22:21:10.545Z,101234
2018-03-19T22:23:38.784Z,101215
2018-03-19T22:26:06.991Z,101216
2018-03-19T22:28:35.430Z,101212
2018-03-19T22:31:03.584Z,101217
2018-03-19T22:33:32.529Z,101202
2018-03-19T22:36:00.672Z,101202
2018-03-19T22:38:28.890Z,101193
2018-03-19T22:40:57.144Z,101199
2018-03-19T22:43:25.330Z,101202
2018-03-19T22:45:53.504Z,101188
2018-03-19T22:48:21.678Z,101194
2018-03-19T22:50:49.918Z,101187
2018-03-19T22:53:18.081Z,101185
2018-03-19T22:55:46.259Z,101175
2018-03-19T22:58:14.522Z,101175
2018-03-19T23:00:42.791Z,101165
2018-03-19T23:03:11.765Z,101149
2018-03-19T23:05:39.940Z,101153
2018-03-19T23:08:08.160Z,101154
2018-03-19T23:10:36.384Z,101159
2018-03-19T23:13:04.657Z,101167
2018-03-19T23:15:32.860Z,101166
2018-03-19T23:18:01.015Z,101158
2018-03-19T23:20:30.014Z,101158
2018-03-19T23:22:59.010Z,101154
2018-03-19T23:25:27.175Z,101151
2018-03-19T23:27:56.131Z,101149
2018-03-19T23:30:24.304Z,101141
2018-03-19T23:32:52.467Z,101140
2018-03-19T23:35:20.654Z,101135
2018-03-19T23:37:48.823Z,101134
2018-03-19T23:40:17.019Z,101125
2018-03-19T23:42:45.179Z,101126
2018-03-19T23:45:13.438Z,101118
2018-03-19T23:47:42.458Z,101123
2018-03-19T23:50:10.748Z,101119
2018-03-19T23:52:39.754Z,101119
2018-03-19T23:55:07.921Z,101110
2018-03-19T23:57:36.153Z,101108
